sensor_id;sensor_type;location;lat;lon;timestamp;pressure;altitude;pressure_sealevel;temperature;humidity
72548;BME280;60570;50.848;6.776;2023-04-05T00:00:48;101277.16;;;8.12;52.67
72548;BME280;60570;50.848;6.776;2023-04-05T00:01:50;101271.91;;;8.10;52.63
72548;BME280;60570;50.848;6.776;2023-04-05T00:02:53;101280.19;;;8.10;52.53
72548;BME280;60570;50.848;6.776;2023-04-05T00:03:55;101276.63;;;8.10;52.67
72548;BME280;60570;50.848;6.776;2023-04-05T00:04:56;101287.97;;;8.08;52.87
72548;BME280;60570;50.848;6.776;2023-04-05T00:05:59;101273.34;;;8.08;53.04
72548;BME280;60570;50.848;6.776;2023-04-05T00:07:03;101276.91;;;8.08;52.90
72548;BME280;60570;50.848;6.776;2023-04-05T00:08:07;101286.88;;;8.09;52.99
72548;BME280;60570;50.848;6.776;2023-04-05T00:09:12;101269.75;;;8.07;52.54
72548;BME280;60570;50.848;6.776;2023-04-05T00:10:14;101272.50;;;8.07;53.02
72548;BME280;60570;50.848;6.776;2023-04-05T00:11:16;101269.75;;;8.07;52.88
72548;BME280;60570;50.848;6.776;2023-04-05T00:12:17;101260.91;;;8.05;53.12
72548;BME280;60570;50.848;6.776;2023-04-05T00:13:21;101268.09;;;8.06;52.47
72548;BME280;60570;50.848;6.776;2023-04-05T00:14:21;101266.44;;;8.05;53.00
72548;BME280;60570;50.848;6.776;2023-04-05T00:15:23;101278.63;;;8.04;53.03
72548;BME280;60570;50.848;6.776;2023-04-05T00:16:26;101277.81;;;8.04;52.88
72548;BME280;60570;50.848;6.776;2023-04-05T00:17:28;101280.59;;;8.04;53.16
72548;BME280;60570;50.848;6.776;2023-04-05T00:18:30;101265.63;;;8.05;53.07
72548;BME280;60570;50.848;6.776;2023-04-05T00:19:34;101274.22;;;8.03;52.66
72548;BME280;60570;50.848;6.776;2023-04-05T00:20:37;101272.28;;;8.04;52.87
72548;BME280;60570;50.848;6.776;2023-04-05T00:21:39;101255.16;;;8.02;52.95
72548;BME280;60570;50.848;6.776;2023-04-05T00:22:41;101256.28;;;8.01;52.85
72548;BME280;60570;50.848;6.776;2023-04-05T00:23:43;101263.78;;;8.00;52.87
72548;BME280;60570;50.848;6.776;2023-04-05T00:24:44;101263.78;;;8.00;52.66
72548;BME280;60570;50.848;6.776;2023-04-05T00:25:46;101263.78;;;8.00;53.07
72548;BME280;60570;50.848;6.776;2023-04-05T00:26:47;101268.47;;;8.00;53.27
72548;BME280;60570;50.848;6.776;2023-04-05T00:27:48;101251.88;;;8.00;52.97
72548;BME280;60570;50.848;6.776;2023-04-05T00:28:49;101261.00;;;8.00;52.69
72548;BME280;60570;50.848;6.776;2023-04-05T00:29:51;101264.88;;;7.99;53.12
72548;BME280;60570;50.848;6.776;2023-04-05T00:30:52;101264.88;;;7.99;53.18
72548;BME280;60570;50.848;6.776;2023-04-05T00:31:54;101258.53;;;7.99;53.14
72548;BME280;60570;50.848;6.776;2023-04-05T00:32:56;101266.81;;;7.99;52.84
72548;BME280;60570;50.848;6.776;2023-04-05T00:33:57;101269.59;;;7.99;53.38
72548;BME280;60570;50.848;6.776;2023-04-05T00:34:58;101257.72;;;7.98;53.16
72548;BME280;60570;50.848;6.776;2023-04-05T00:36:07;101254.13;;;7.98;53.23
72548;BME280;60570;50.848;6.776;2023-04-05T00:37:10;101249.41;;;7.98;53.30
72548;BME280;60570;50.848;6.776;2023-04-05T00:38:12;101250.53;;;7.97;52.78
72548;BME280;60570;50.848;6.776;2023-04-05T00:39:14;101248.91;;;7.96;53.10
72548;BME280;60570;50.848;6.776;2023-04-05T00:40:15;101252.19;;;7.98;53.32
72548;BME280;60570;50.848;6.776;2023-04-05T00:41:16;101253.28;;;7.97;53.00
72548;BME280;60570;50.848;6.776;2023-04-05T00:42:17;101250.84;;;7.96;53.28
72548;BME280;60570;50.848;6.776;2023-04-05T00:43:18;101256.38;;;7.96;53.03
72548;BME280;60570;50.848;6.776;2023-04-05T00:44:20;101250.00;;;7.95;53.34
72548;BME280;60570;50.848;6.776;2023-04-05T00:45:21;101253.06;;;7.94;53.35
72548;BME280;60570;50.848;6.776;2023-04-05T00:46:22;101251.41;;;7.93;53.20
72548;BME280;60570;50.848;6.776;2023-04-05T00:47:24;101245.09;;;7.92;53.43
72548;BME280;60570;50.848;6.776;2023-04-05T00:48:24;101249.78;;;7.92;53.14
72548;BME280;60570;50.848;6.776;2023-04-05T00:49:27;101249.78;;;7.92;53.07
72548;BME280;60570;50.848;6.776;2023-04-05T00:50:28;101245.34;;;7.91;53.07
72548;BME280;60570;50.848;6.776;2023-04-05T00:51:30;101250.88;;;7.91;53.14
72548;BME280;60570;50.848;6.776;2023-04-05T00:52:33;101246.19;;;7.91;53.02
72548;BME280;60570;50.848;6.776;2023-04-05T00:53:38;101239.81;;;7.91;53.05
72548;BME280;60570;50.848;6.776;2023-04-05T00:54:40;101244.56;;;7.90;53.10
72548;BME280;60570;50.848;6.776;2023-04-05T00:55:42;101248.44;;;7.89;53.40
72548;BME280;60570;50.848;6.776;2023-04-05T00:56:43;101246.50;;;7.90;53.59
72548;BME280;60570;50.848;6.776;2023-04-05T00:57:45;101245.66;;;7.89;53.20
72548;BME280;60570;50.848;6.776;2023-04-05T00:58:46;101253.97;;;7.89;53.62
72548;BME280;60570;50.848;6.776;2023-04-05T00:59:51;101253.97;;;7.89;53.20
72548;BME280;60570;50.848;6.776;2023-04-05T01:00:57;101253.13;;;7.89;53.57
72548;BME280;60570;50.848;6.776;2023-04-05T01:02:05;101258.66;;;7.89;53.11
72548;BME280;60570;50.848;6.776;2023-04-05T01:03:09;101253.44;;;7.87;53.30
72548;BME280;60570;50.848;6.776;2023-04-05T01:04:13;101243.22;;;7.88;53.44
72548;BME280;60570;50.848;6.776;2023-04-05T01:05:30;101254.28;;;7.88;53.17
72548;BME280;60570;50.848;6.776;2023-04-05T01:06:42;101247.91;;;7.87;53.32
72548;BME280;60570;50.848;6.776;2023-04-05T01:07:49;101250.16;;;7.85;53.50
72548;BME280;60570;50.848;6.776;2023-04-05T01:08:59;101251.28;;;7.84;53.19
72548;BME280;60570;50.848;6.776;2023-04-05T01:10:05;101253.22;;;7.84;53.64
72548;BME280;60570;50.848;6.776;2023-04-05T01:11:09;101248.00;;;7.82;53.38
72548;BME280;60570;50.848;6.776;2023-04-05T01:12:16;101246.06;;;7.83;53.58
72548;BME280;60570;50.848;6.776;2023-04-05T01:13:17;101248.31;;;7.81;53.79
72548;BME280;60570;50.848;6.776;2023-04-05T01:14:19;101243.88;;;7.80;53.75
72548;BME280;60570;50.848;6.776;2023-04-05T01:15:19;101239.19;;;7.80;53.90
72548;BME280;60570;50.848;6.776;2023-04-05T01:16:21;101240.28;;;7.79;53.75
72548;BME280;60570;50.848;6.776;2023-04-05T01:17:25;101243.88;;;7.80;53.41
72548;BME280;60570;50.848;6.776;2023-04-05T01:18:28;101240.28;;;7.79;53.83
72548;BME280;60570;50.848;6.776;2023-04-05T01:19:30;101240.59;;;7.78;53.35
72548;BME280;60570;50.848;6.776;2023-04-05T01:20:39;101237.00;;;7.77;53.46
72548;BME280;60570;50.848;6.776;2023-04-05T01:22:09;101239.22;;;7.75;53.45
72548;BME280;60570;50.848;6.776;2023-04-05T01:23:35;101238.72;;;7.73;53.95
72548;BME280;60570;50.848;6.776;2023-04-05T01:24:48;101242.31;;;7.74;53.98
72548;BME280;60570;50.848;6.776;2023-04-05T01:26:03;101240.69;;;7.73;53.68
72548;BME280;60570;50.848;6.776;2023-04-05T01:27:12;101239.84;;;7.72;54.18
72548;BME280;60570;50.848;6.776;2023-04-05T01:28:27;101238.22;;;7.71;53.90
72548;BME280;60570;50.848;6.776;2023-04-05T01:29:59;101238.22;;;7.71;54.09
72548;BME280;60570;50.848;6.776;2023-04-05T01:31:06;101230.72;;;7.72;54.04
72548;BME280;60570;50.848;6.776;2023-04-05T01:32:14;101233.47;;;7.72;53.93
72548;BME280;60570;50.848;6.776;2023-04-05T01:33:23;101228.25;;;7.70;54.03
72548;BME280;60570;50.848;6.776;2023-04-05T01:34:29;101229.41;;;7.69;53.98
72548;BME280;60570;50.848;6.776;2023-04-05T01:35:38;101227.44;;;7.70;54.20
72548;BME280;60570;50.848;6.776;2023-04-05T01:36:44;101234.09;;;7.69;54.20
72548;BME280;60570;50.848;6.776;2023-04-05T01:37:54;101235.72;;;7.70;54.23
72548;BME280;60570;50.848;6.776;2023-04-05T01:38:57;101238.50;;;7.70;53.83
72548;BME280;60570;50.848;6.776;2023-04-05T01:39:59;101236.84;;;7.69;54.05
72548;BME280;60570;50.848;6.776;2023-04-05T01:41:00;101236.84;;;7.69;54.09
72548;BME280;60570;50.848;6.776;2023-04-05T01:42:03;101244.31;;;7.68;54.07
72548;BME280;60570;50.848;6.776;2023-04-05T01:43:11;101237.97;;;7.68;54.29
72548;BME280;60570;50.848;6.776;2023-04-05T01:44:13;101231.63;;;7.67;54.24
72548;BME280;60570;50.848;6.776;2023-04-05T01:45:15;101231.63;;;7.67;54.33
72548;BME280;60570;50.848;6.776;2023-04-05T01:46:17;101233.56;;;7.67;54.22
72548;BME280;60570;50.848;6.776;2023-04-05T01:47:17;101228.03;;;7.67;54.24
72548;BME280;60570;50.848;6.776;2023-04-05T01:48:19;101220.84;;;7.66;54.14
72548;BME280;60570;50.848;6.776;2023-04-05T01:49:20;101228.88;;;7.67;53.87
72548;BME280;60570;50.848;6.776;2023-04-05T01:50:22;101229.97;;;7.66;54.12
72548;BME280;60570;50.848;6.776;2023-04-05T01:51:23;101227.22;;;7.66;54.17
72548;BME280;60570;50.848;6.776;2023-04-05T01:52:25;101224.44;;;7.66;54.44
72548;BME280;60570;50.848;6.776;2023-04-05T01:53:26;101229.13;;;7.66;54.32
72548;BME280;60570;50.848;6.776;2023-04-05T01:54:27;101223.63;;;7.66;53.92
72548;BME280;60570;50.848;6.776;2023-04-05T01:55:28;101218.91;;;7.66;54.21
72548;BME280;60570;50.848;6.776;2023-04-05T01:56:30;101221.38;;;7.68;54.46
72548;BME280;60570;50.848;6.776;2023-04-05T01:57:31;101217.81;;;7.67;53.89
72548;BME280;60570;50.848;6.776;2023-04-05T01:58:32;101220.28;;;7.69;54.36
72548;BME280;60570;50.848;6.776;2023-04-05T01:59:33;101219.75;;;7.67;53.92
72548;BME280;60570;50.848;6.776;2023-04-05T02:00:36;101217.50;;;7.69;54.16
72548;BME280;60570;50.848;6.776;2023-04-05T02:01:37;101219.44;;;7.68;54.03
72548;BME280;60570;50.848;6.776;2023-04-05T02:02:38;101219.75;;;7.67;54.02
72548;BME280;60570;50.848;6.776;2023-04-05T02:03:39;101221.38;;;7.68;54.32
72548;BME280;60570;50.848;6.776;2023-04-05T02:04:41;101217.81;;;7.67;54.13
72548;BME280;60570;50.848;6.776;2023-04-05T02:05:42;101225.28;;;7.67;53.99
72548;BME280;60570;50.848;6.776;2023-04-05T02:06:44;101219.75;;;7.67;53.97
72548;BME280;60570;50.848;6.776;2023-04-05T02:07:44;101211.44;;;7.67;54.42
72548;BME280;60570;50.848;6.776;2023-04-05T02:08:46;101223.63;;;7.66;54.28
72548;BME280;60570;50.848;6.776;2023-04-05T02:09:47;101214.22;;;7.67;53.98
72548;BME280;60570;50.848;6.776;2023-04-05T02:10:51;101207.53;;;7.68;54.29
72548;BME280;60570;50.848;6.776;2023-04-05T02:11:51;101206.75;;;7.67;54.39
72548;BME280;60570;50.848;6.776;2023-04-05T02:12:53;101210.03;;;7.69;53.92
72548;BME280;60570;50.848;6.776;2023-04-05T02:13:54;101212.81;;;7.69;54.11
72548;BME280;60570;50.848;6.776;2023-04-05T02:14:56;101205.63;;;7.68;53.78
72548;BME280;60570;50.848;6.776;2023-04-05T02:15:59;101208.06;;;7.70;53.80
72548;BME280;60570;50.848;6.776;2023-04-05T02:17:01;101206.66;;;7.72;53.73
72548;BME280;60570;50.848;6.776;2023-04-05T02:18:02;101202.75;;;7.73;53.71
72548;BME280;60570;50.848;6.776;2023-04-05T02:19:04;101207.19;;;7.74;53.67
72548;BME280;60570;50.848;6.776;2023-04-05T02:20:06;101198.88;;;7.74;53.63
72548;BME280;60570;50.848;6.776;2023-04-05T02:21:08;101209.94;;;7.74;53.64
72548;BME280;60570;50.848;6.776;2023-04-05T02:22:10;101201.34;;;7.76;54.08
72548;BME280;60570;50.848;6.776;2023-04-05T02:23:11;101204.13;;;7.76;53.75
72548;BME280;60570;50.848;6.776;2023-04-05T02:24:12;101200.53;;;7.75;53.54
72548;BME280;60570;50.848;6.776;2023-04-05T02:25:13;101212.41;;;7.76;53.92
72548;BME280;60570;50.848;6.776;2023-04-05T02:26:14;101201.34;;;7.76;54.04
72548;BME280;60570;50.848;6.776;2023-04-05T02:27:16;101203.28;;;7.75;53.56
72548;BME280;60570;50.848;6.776;2023-04-05T02:28:17;101201.34;;;7.76;53.67
72548;BME280;60570;50.848;6.776;2023-04-05T02:29:18;101196.94;;;7.75;53.89
72548;BME280;60570;50.848;6.776;2023-04-05T02:30:19;101200.81;;;7.74;53.50
72548;BME280;60570;50.848;6.776;2023-04-05T02:31:22;101203.06;;;7.72;53.47
72548;BME280;60570;50.848;6.776;2023-04-05T02:32:23;101201.13;;;7.72;53.77
72548;BME280;60570;50.848;6.776;2023-04-05T02:33:25;101193.97;;;7.71;54.19
72548;BME280;60570;50.848;6.776;2023-04-05T02:34:27;101208.28;;;7.73;53.63
72548;BME280;60570;50.848;6.776;2023-04-05T02:35:28;101213.81;;;7.73;53.67
72548;BME280;60570;50.848;6.776;2023-04-05T02:36:29;101213.03;;;7.73;54.09
72548;BME280;60570;50.848;6.776;2023-04-05T02:37:30;101214.66;;;7.74;54.19
72548;BME280;60570;50.848;6.776;2023-04-05T02:38:31;101204.72;;;7.73;54.04
72548;BME280;60570;50.848;6.776;2023-04-05T02:39:32;101200.00;;;7.73;53.84
72548;BME280;60570;50.848;6.776;2023-04-05T02:40:34;101204.72;;;7.73;54.06
72548;BME280;60570;50.848;6.776;2023-04-05T02:41:35;101208.28;;;7.73;54.05
72548;BME280;60570;50.848;6.776;2023-04-05T02:42:36;101196.44;;;7.73;53.89
72548;BME280;60570;50.848;6.776;2023-04-05T02:43:38;101201.97;;;7.73;53.81
72548;BME280;60570;50.848;6.776;2023-04-05T02:44:39;101207.50;;;7.73;53.72
72548;BME280;60570;50.848;6.776;2023-04-05T02:45:40;101212.19;;;7.72;54.07
72548;BME280;60570;50.848;6.776;2023-04-05T02:46:43;101202.75;;;7.73;53.97
72548;BME280;60570;50.848;6.776;2023-04-05T02:47:45;101208.59;;;7.72;54.04
72548;BME280;60570;50.848;6.776;2023-04-05T02:48:46;101206.66;;;7.72;54.05
72548;BME280;60570;50.848;6.776;2023-04-05T02:49:48;101213.03;;;7.73;53.95
72548;BME280;60570;50.848;6.776;2023-04-05T02:50:49;101208.59;;;7.72;53.58
72548;BME280;60570;50.848;6.776;2023-04-05T02:51:51;101212.19;;;7.72;54.13
72548;BME280;60570;50.848;6.776;2023-04-05T02:52:52;101213.03;;;7.73;53.97
72548;BME280;60570;50.848;6.776;2023-04-05T02:53:54;101214.97;;;7.72;53.43
72548;BME280;60570;50.848;6.776;2023-04-05T02:54:55;101221.63;;;7.71;53.68
72548;BME280;60570;50.848;6.776;2023-04-05T02:55:56;101219.97;;;7.70;53.52
72548;BME280;60570;50.848;6.776;2023-04-05T02:56:59;101210.03;;;7.69;54.04
72548;BME280;60570;50.848;6.776;2023-04-05T02:58:01;101207.28;;;7.69;53.92
72548;BME280;60570;50.848;6.776;2023-04-05T02:59:02;101215.56;;;7.69;53.94
72548;BME280;60570;50.848;6.776;2023-04-05T03:00:04;101218.34;;;7.69;53.81
72548;BME280;60570;50.848;6.776;2023-04-05T03:01:06;101201.22;;;7.67;53.67
72548;BME280;60570;50.848;6.776;2023-04-05T03:02:09;101208.38;;;7.68;53.94
72548;BME280;60570;50.848;6.776;2023-04-05T03:03:10;101207.53;;;7.68;54.04
72548;BME280;60570;50.848;6.776;2023-04-05T03:04:11;101205.63;;;7.68;53.77
72548;BME280;60570;50.848;6.776;2023-04-05T03:05:12;101200.38;;;7.67;53.93
72548;BME280;60570;50.848;6.776;2023-04-05T03:06:18;101201.50;;;7.66;53.78
72548;BME280;60570;50.848;6.776;2023-04-05T03:07:20;101199.88;;;7.65;54.20
72548;BME280;60570;50.848;6.776;2023-04-05T03:08:24;101200.97;;;7.64;54.07
72548;BME280;60570;50.848;6.776;2023-04-05T03:09:26;101203.72;;;7.64;54.25
72548;BME280;60570;50.848;6.776;2023-04-05T03:10:27;101198.19;;;7.64;53.72
72548;BME280;60570;50.848;6.776;2023-04-05T03:11:34;101202.09;;;7.63;54.20
72548;BME280;60570;50.848;6.776;2023-04-05T03:12:34;101199.66;;;7.61;54.27
72548;BME280;60570;50.848;6.776;2023-04-05T03:13:36;101199.66;;;7.61;53.74
72548;BME280;60570;50.848;6.776;2023-04-05T03:14:37;101198.50;;;7.62;53.75
72548;BME280;60570;50.848;6.776;2023-04-05T03:15:39;101196.56;;;7.63;54.30
72548;BME280;60570;50.848;6.776;2023-04-05T03:16:40;101201.81;;;7.64;53.61
72548;BME280;60570;50.848;6.776;2023-04-05T03:17:43;101199.03;;;7.64;53.66
72548;BME280;60570;50.848;6.776;2023-04-05T03:18:45;101192.69;;;7.64;54.06
72548;BME280;60570;50.848;6.776;2023-04-05T03:19:46;101194.34;;;7.65;54.02
72548;BME280;60570;50.848;6.776;2023-04-05T03:20:47;101184.38;;;7.64;54.00
72548;BME280;60570;50.848;6.776;2023-04-05T03:21:49;101192.69;;;7.64;54.08
72548;BME280;60570;50.848;6.776;2023-04-05T03:22:50;101191.03;;;7.63;54.18
72548;BME280;60570;50.848;6.776;2023-04-05T03:23:51;101193.81;;;7.63;54.21
72548;BME280;60570;50.848;6.776;2023-04-05T03:24:52;101187.44;;;7.62;53.93
72548;BME280;60570;50.848;6.776;2023-04-05T03:25:54;101191.88;;;7.63;53.69
72548;BME280;60570;50.848;6.776;2023-04-05T03:26:56;101192.16;;;7.62;54.10
72548;BME280;60570;50.848;6.776;2023-04-05T03:28:02;101192.97;;;7.62;54.13
72548;BME280;60570;50.848;6.776;2023-04-05T03:29:04;101189.38;;;7.62;53.73
72548;BME280;60570;50.848;6.776;2023-04-05T03:30:07;101186.63;;;7.62;54.20
72548;BME280;60570;50.848;6.776;2023-04-05T03:31:08;101197.97;;;7.60;53.95
72548;BME280;60570;50.848;6.776;2023-04-05T03:32:09;101194.38;;;7.60;53.98
72548;BME280;60570;50.848;6.776;2023-04-05T03:33:12;101198.81;;;7.61;54.28
72548;BME280;60570;50.848;6.776;2023-04-05T03:34:14;101198.81;;;7.61;54.03
72548;BME280;60570;50.848;6.776;2023-04-05T03:35:15;101191.34;;;7.61;53.70
72548;BME280;60570;50.848;6.776;2023-04-05T03:36:18;101201.28;;;7.62;53.88
72548;BME280;60570;50.848;6.776;2023-04-05T03:37:21;101198.81;;;7.61;53.93
72548;BME280;60570;50.848;6.776;2023-04-05T03:38:21;101195.22;;;7.60;54.04
72548;BME280;60570;50.848;6.776;2023-04-05T03:39:23;101207.41;;;7.59;53.77
72548;BME280;60570;50.848;6.776;2023-04-05T03:40:24;101194.69;;;7.58;54.13
72548;BME280;60570;50.848;6.776;2023-04-05T03:41:25;101194.38;;;7.60;54.29
72548;BME280;60570;50.848;6.776;2023-04-05T03:42:26;101192.75;;;7.59;54.04
72548;BME280;60570;50.848;6.776;2023-04-05T03:43:28;101190.00;;;7.59;53.81
72548;BME280;60570;50.848;6.776;2023-04-05T03:44:30;101188.06;;;7.59;54.34
72548;BME280;60570;50.848;6.776;2023-04-05T03:45:31;101188.38;;;7.58;53.95
72548;BME280;60570;50.848;6.776;2023-04-05T03:46:33;101183.94;;;7.57;54.18
72548;BME280;60570;50.848;6.776;2023-04-05T03:47:37;101198.59;;;7.57;53.88
72548;BME280;60570;50.848;6.776;2023-04-05T03:48:39;101191.13;;;7.58;54.32
72548;BME280;60570;50.848;6.776;2023-04-05T03:49:41;101190.31;;;7.57;54.38
72548;BME280;60570;50.848;6.776;2023-04-05T03:50:41;101191.41;;;7.56;54.28
72548;BME280;60570;50.848;6.776;2023-04-05T03:51:43;101196.13;;;7.56;54.13
72548;BME280;60570;50.848;6.776;2023-04-05T03:52:43;101190.88;;;7.54;54.21
72548;BME280;60570;50.848;6.776;2023-04-05T03:53:45;101188.94;;;7.55;54.19
72548;BME280;60570;50.848;6.776;2023-04-05T03:54:46;101192.84;;;7.54;54.19
72548;BME280;60570;50.848;6.776;2023-04-05T03:55:47;101185.66;;;7.53;54.27
72548;BME280;60570;50.848;6.776;2023-04-05T03:56:49;101194.78;;;7.53;54.41
72548;BME280;60570;50.848;6.776;2023-04-05T03:57:52;101182.91;;;7.53;54.31
72548;BME280;60570;50.848;6.776;2023-04-05T03:58:53;101193.13;;;7.52;53.95
72548;BME280;60570;50.848;6.776;2023-04-05T03:59:55;101182.91;;;7.53;53.92
72548;BME280;60570;50.848;6.776;2023-04-05T04:00:55;101180.97;;;7.53;54.37
72548;BME280;60570;50.848;6.776;2023-04-05T04:01:57;101177.38;;;7.53;54.14
72548;BME280;60570;50.848;6.776;2023-04-05T04:02:58;101178.50;;;7.52;54.16
72548;BME280;60570;50.848;6.776;2023-04-05T04:04:01;101183.19;;;7.51;54.30
72548;BME280;60570;50.848;6.776;2023-04-05T04:05:04;101172.44;;;7.50;54.20
72548;BME280;60570;50.848;6.776;2023-04-05T04:06:06;101176.00;;;7.50;53.89
72548;BME280;60570;50.848;6.776;2023-04-05T04:07:07;101181.53;;;7.50;54.46
72548;BME280;60570;50.848;6.776;2023-04-05T04:08:09;101176.00;;;7.50;54.21
72548;BME280;60570;50.848;6.776;2023-04-05T04:09:10;101174.38;;;7.49;54.48
72548;BME280;60570;50.848;6.776;2023-04-05T04:10:13;101179.09;;;7.49;54.16
72548;BME280;60570;50.848;6.776;2023-04-05T04:11:16;101169.97;;;7.48;54.43
72548;BME280;60570;50.848;6.776;2023-04-05T04:12:17;101169.97;;;7.48;53.85
72548;BME280;60570;50.848;6.776;2023-04-05T04:13:18;101171.63;;;7.49;54.35
72548;BME280;60570;50.848;6.776;2023-04-05T04:14:20;101181.00;;;7.48;54.27
72548;BME280;60570;50.848;6.776;2023-04-05T04:15:20;101171.94;;;7.48;54.41
72548;BME280;60570;50.848;6.776;2023-04-05T04:16:22;101184.63;;;7.49;54.22
72548;BME280;60570;50.848;6.776;2023-04-05T04:17:26;101184.91;;;7.47;53.88
72548;BME280;60570;50.848;6.776;2023-04-05T04:18:28;101180.50;;;7.46;54.40
72548;BME280;60570;50.848;6.776;2023-04-05T04:19:30;101184.38;;;7.45;54.27
72548;BME280;60570;50.848;6.776;2023-04-05T04:20:32;101184.69;;;7.44;54.30
72548;BME280;60570;50.848;6.776;2023-04-05T04:21:33;101183.88;;;7.43;54.17
72548;BME280;60570;50.848;6.776;2023-04-05T04:22:35;101182.25;;;7.42;54.17
72548;BME280;60570;50.848;6.776;2023-04-05T04:23:37;101181.94;;;7.44;54.37
72548;BME280;60570;50.848;6.776;2023-04-05T04:24:39;101183.88;;;7.43;54.25
72548;BME280;60570;50.848;6.776;2023-04-05T04:25:40;101183.88;;;7.43;53.99
72548;BME280;60570;50.848;6.776;2023-04-05T04:26:45;101181.94;;;7.44;54.35
72548;BME280;60570;50.848;6.776;2023-04-05T04:27:46;101178.34;;;7.43;54.39
72548;BME280;60570;50.848;6.776;2023-04-05T04:28:49;101184.69;;;7.44;54.43
72548;BME280;60570;50.848;6.776;2023-04-05T04:29:52;101185.81;;;7.43;54.39
72548;BME280;60570;50.848;6.776;2023-04-05T04:30:55;101184.19;;;7.42;53.95
72548;BME280;60570;50.848;6.776;2023-04-05T04:31:56;101184.47;;;7.40;54.44
72548;BME280;60570;50.848;6.776;2023-04-05T04:32:58;101191.09;;;7.39;54.11
72548;BME280;60570;50.848;6.776;2023-04-05T04:33:59;101192.78;;;7.40;54.38
72548;BME280;60570;50.848;6.776;2023-04-05T04:35:06;101185.59;;;7.39;54.12
72548;BME280;60570;50.848;6.776;2023-04-05T04:36:09;101184.75;;;7.39;54.06
72548;BME280;60570;50.848;6.776;2023-04-05T04:37:13;101177.59;;;7.38;53.95
72548;BME280;60570;50.848;6.776;2023-04-05T04:38:17;101181.47;;;7.37;54.27
72548;BME280;60570;50.848;6.776;2023-04-05T04:39:19;101177.38;;;7.34;54.58
72548;BME280;60570;50.848;6.776;2023-04-05T04:40:27;101184.00;;;7.33;54.38
72548;BME280;60570;50.848;6.776;2023-04-05T04:41:31;101176.53;;;7.34;54.56
72548;BME280;60570;50.848;6.776;2023-04-05T04:42:33;101180.13;;;7.34;54.58
72548;BME280;60570;50.848;6.776;2023-04-05T04:43:38;101182.91;;;7.34;54.29
72548;BME280;60570;50.848;6.776;2023-04-05T04:44:43;101185.66;;;7.34;54.31
72548;BME280;60570;50.848;6.776;2023-04-05T04:45:45;101187.28;;;7.35;54.03
72548;BME280;60570;50.848;6.776;2023-04-05T04:46:47;101182.91;;;7.34;54.58
72548;BME280;60570;50.848;6.776;2023-04-05T04:47:54;101192.28;;;7.33;54.33
72548;BME280;60570;50.848;6.776;2023-04-05T04:48:55;101182.06;;;7.34;54.38
72548;BME280;60570;50.848;6.776;2023-04-05T04:49:56;101185.13;;;7.32;54.44
72548;BME280;60570;50.848;6.776;2023-04-05T04:51:01;101182.38;;;7.32;54.19
72548;BME280;60570;50.848;6.776;2023-04-05T04:52:02;101183.19;;;7.33;54.67
72548;BME280;60570;50.848;6.776;2023-04-05T04:53:04;101188.69;;;7.33;54.37
72548;BME280;60570;50.848;6.776;2023-04-05T04:54:05;101187.91;;;7.32;54.44
72548;BME280;60570;50.848;6.776;2023-04-05T04:55:07;101187.06;;;7.32;54.21
72548;BME280;60570;50.848;6.776;2023-04-05T04:56:09;101184.31;;;7.32;54.46
72548;BME280;60570;50.848;6.776;2023-04-05T04:57:11;101196.47;;;7.31;54.52
72548;BME280;60570;50.848;6.776;2023-04-05T04:58:12;101192.06;;;7.30;54.63
72548;BME280;60570;50.848;6.776;2023-04-05T04:59:14;101201.19;;;7.30;54.27
72548;BME280;60570;50.848;6.776;2023-04-05T05:00:15;101192.06;;;7.30;54.17
72548;BME280;60570;50.848;6.776;2023-04-05T05:01:17;101200.06;;;7.31;54.49
72548;BME280;60570;50.848;6.776;2023-04-05T05:02:22;101192.06;;;7.30;54.28
72548;BME280;60570;50.848;6.776;2023-04-05T05:03:23;101191.53;;;7.28;54.37
72548;BME280;60570;50.848;6.776;2023-04-05T05:04:24;101189.63;;;7.28;54.44
72548;BME280;60570;50.848;6.776;2023-04-05T05:05:26;101187.94;;;7.27;54.25
72548;BME280;60570;50.848;6.776;2023-04-05T05:06:28;101188.78;;;7.28;54.51
72548;BME280;60570;50.848;6.776;2023-04-05T05:07:30;101189.63;;;7.28;54.63
72548;BME280;60570;50.848;6.776;2023-04-05T05:08:31;101194.31;;;7.28;54.15
72548;BME280;60570;50.848;6.776;2023-04-05T05:09:33;101189.91;;;7.27;54.35
72548;BME280;60570;50.848;6.776;2023-04-05T05:10:33;101185.50;;;7.25;54.51
72548;BME280;60570;50.848;6.776;2023-04-05T05:11:35;101181.91;;;7.25;54.55
72548;BME280;60570;50.848;6.776;2023-04-05T05:12:36;101186.31;;;7.26;54.19
72548;BME280;60570;50.848;6.776;2023-04-05T05:13:38;101187.94;;;7.27;54.53
72548;BME280;60570;50.848;6.776;2023-04-05T05:14:39;101191.03;;;7.25;54.46
72548;BME280;60570;50.848;6.776;2023-04-05T05:15:40;101185.19;;;7.27;54.62
72548;BME280;60570;50.848;6.776;2023-04-05T05:16:41;101189.63;;;7.28;54.03
72548;BME280;60570;50.848;6.776;2023-04-05T05:17:43;101191.84;;;7.26;54.07
72548;BME280;60570;50.848;6.776;2023-04-05T05:18:44;101187.16;;;7.27;54.48
72548;BME280;60570;50.848;6.776;2023-04-05T05:19:47;101191.84;;;7.26;54.53
72548;BME280;60570;50.848;6.776;2023-04-05T05:20:49;101194.09;;;7.24;54.45
72548;BME280;60570;50.848;6.776;2023-04-05T05:21:53;101191.31;;;7.24;54.10
72548;BME280;60570;50.848;6.776;2023-04-05T05:22:54;101194.09;;;7.24;54.33
72548;BME280;60570;50.848;6.776;2023-04-05T05:23:56;101198.78;;;7.23;54.44
72548;BME280;60570;50.848;6.776;2023-04-05T05:24:57;101194.09;;;7.24;54.75
72548;BME280;60570;50.848;6.776;2023-04-05T05:25:58;101186.09;;;7.22;54.39
72548;BME280;60570;50.848;6.776;2023-04-05T05:26:59;101188.03;;;7.22;54.60
72548;BME280;60570;50.848;6.776;2023-04-05T05:28:01;101188.88;;;7.22;54.62
72548;BME280;60570;50.848;6.776;2023-04-05T05:29:03;101183.91;;;7.19;54.15
72548;BME280;60570;50.848;6.776;2023-04-05T05:30:04;101185.84;;;7.19;54.09
72548;BME280;60570;50.848;6.776;2023-04-05T05:31:06;101190.56;;;7.18;54.45
72548;BME280;60570;50.848;6.776;2023-04-05T05:32:07;101191.38;;;7.19;54.23